Time;durP1;ratioP1;P1;durP2;ratioP2;P2;SDS_P1;SDS_P2;PMS_P1;PMS_P2;Temp;Humidity;BMP_temperature;BMP_pressure;BME280_temperature;BME280_humidity;BME280_pressure;Samples;Min_cycle;Max_cycle;Signal;HPM_P1;HPM_P2
2023/06/11 00:01:08;;;;;;;;;;;;;;;16.59;52.28;100906.10;102453;279;120707;-58
2023/06/11 00:04:12;;;;;;;8.00;5.20;;;;;;;16.52;52.31;100909.09;102415;279;104049;-56
2023/06/11 00:06:53;;;;;;;6.50;4.50;;;;;;;16.47;52.20;100909.02;102357;279;114604;-55
2023/06/11 00:09:25;;;;;;;8.60;4.50;;;;;;;16.41;52.23;100911.29;102422;279;93885;-57
2023/06/11 00:12:03;;;;;;;9.50;4.90;;;;;;;16.34;52.20;100908.69;102416;279;97345;-57
2023/06/11 00:14:41;;;;;;;6.30;5.00;;;;;;;16.29;52.24;100907.39;102400;279;120509;-58
2023/06/11 00:17:16;;;;;;;6.40;4.30;;;;;;;16.26;52.23;100911.42;102429;279;103363;-58
2023/06/11 00:19:52;;;;;;;5.60;4.10;;;;;;;16.21;52.20;100911.61;102394;279;113116;-55
2023/06/11 00:22:30;;;;;;;6.90;4.30;;;;;;;16.16;52.23;100915.60;102397;279;92990;-55
2023/06/11 00:25:05;;;;;;;5.90;4.30;;;;;;;16.08;52.31;100913.48;102446;279;97821;-57
2023/06/11 00:27:37;;;;;;;8.10;4.00;;;;;;;16.02;52.46;100913.74;102326;279;122709;-58
2023/06/11 00:30:10;;;;;;;6.40;3.70;;;;;;;15.97;52.43;100915.42;102383;279;105184;-57
2023/06/11 00:32:41;;;;;;;6.30;3.90;;;;;;;15.93;52.36;100915.21;102407;279;115198;-57
2023/06/11 00:35:19;;;;;;;5.10;4.20;;;;;;;15.90;52.35;100914.30;102419;279;94833;-59
2023/06/11 00:37:57;;;;;;;5.10;3.90;;;;;;;15.85;52.38;100911.88;102415;279;98076;-59
2023/06/11 00:40:30;;;;;;;6.30;4.30;;;;;;;15.79;52.60;100915.23;102433;279;120325;-55
2023/06/11 00:43:07;;;;;;;6.80;4.30;;;;;;;15.75;52.51;100916.59;102384;279;105355;-55
2023/06/11 00:45:45;;;;;;;5.60;4.00;;;;;;;15.71;52.47;100918.35;102390;279;113415;-55
2023/06/11 00:48:20;;;;;;;8.00;5.00;;;;;;;15.69;52.64;100923.79;102360;279;94896;-55
2023/06/11 00:50:52;;;;;;;7.60;4.10;;;;;;;15.64;52.45;100926.85;102412;279;98165;-55
2023/06/11 00:53:35;;;;;;;6.00;3.70;;;;;;;15.59;52.52;100928.68;102375;279;121548;-55
2023/06/11 00:56:08;;;;;;;5.90;3.90;;;;;;;15.55;52.71;100928.05;102374;279;103781;-58
2023/06/11 00:58:44;;;;;;;7.10;4.10;;;;;;;15.48;52.55;100925.33;102367;279;114327;-57
2023/06/11 01:01:26;;;;;;;9.50;4.60;;;;;;;15.41;52.53;100926.85;102394;279;93458;-57
2023/06/11 01:04:01;;;;;;;9.40;4.20;;;;;;;15.35;52.61;100926.52;102436;279;97492;-55
2023/06/11 01:06:34;;;;;;;7.00;4.30;;;;;;;15.31;52.54;100927.33;102382;279;120893;-56
2023/06/11 01:09:07;;;;;;;10.10;4.90;;;;;;;15.27;52.74;100921.33;102386;279;105572;-54
2023/06/11 01:11:42;;;;;;;12.40;5.00;;;;;;;15.24;52.60;100924.89;102389;279;114383;-55
2023/06/11 01:14:17;;;;;;;10.40;4.80;;;;;;;15.18;52.66;100923.49;102386;279;93515;-58
2023/06/11 01:16:53;;;;;;;9.50;4.20;;;;;;;15.15;52.58;100930.45;102414;279;97893;-58
2023/06/11 01:19:59;;;;;;;10.40;4.50;;;;;;;15.12;52.63;100932.70;102427;279;121974;-58
2023/06/11 01:22:36;;;;;;;;;;;;;;;15.07;52.51;100935.34;102382;279;104741;-58
2023/06/11 01:25:25;;;;;;;10.70;5.00;;;;;;;15.00;52.50;100934.69;102410;279;114238;-57
2023/06/11 01:28:10;;;;;;;9.30;4.90;;;;;;;14.95;52.56;100937.48;102417;279;94550;-58
2023/06/11 01:30:52;;;;;;;7.50;4.50;;;;;;;14.90;52.62;100940.13;102412;279;97149;-55
2023/06/11 01:33:35;;;;;;;6.70;4.20;;;;;;;14.85;52.47;100944.45;102406;279;119294;-55
2023/06/11 01:36:17;;;;;;;7.30;3.80;;;;;;;14.80;52.44;100946.70;102419;279;104928;-54
2023/06/11 01:38:55;;;;;;;9.00;3.90;;;;;;;14.76;52.43;100947.19;102426;279;112930;-57
2023/06/11 01:41:29;;;;;;;7.30;4.20;;;;;;;14.75;52.24;100952.49;102400;279;94541;-57
2023/06/11 01:44:04;;;;;;;9.80;4.90;;;;;;;14.69;52.36;100957.75;102408;279;96740;-55
2023/06/11 01:46:39;;;;;;;9.30;4.60;;;;;;;14.67;52.27;100958.66;102419;279;120718;-54
2023/06/11 01:49:11;;;;;;;9.60;5.00;;;;;;;14.64;52.27;100956.73;102467;324;105201;-56
2023/06/11 01:51:52;;;;;;;9.30;4.40;;;;;;;14.60;52.25;100961.20;102386;279;114837;-57
2023/06/11 01:54:23;;;;;;;10.50;4.10;;;;;;;14.56;52.18;100961.91;102285;279;95379;-59
2023/06/11 01:57:01;;;;;;;9.10;4.70;;;;;;;14.50;52.27;100966.69;102455;279;96806;-58
2023/06/11 01:59:41;;;;;;;9.40;4.90;;;;;;;14.46;52.34;100965.50;102440;279;119176;-56
2023/06/11 02:02:23;;;;;;;8.40;4.30;;;;;;;14.42;52.63;100970.91;102392;279;105486;-55
2023/06/11 02:05:01;;;;;;;8.30;3.90;;;;;;;14.39;52.52;100973.03;102417;267;114064;-55
2023/06/11 02:07:37;;;;;;;8.70;4.70;;;;;;;14.37;52.43;100978.08;102372;279;94807;-55
2023/06/11 02:10:11;;;;;;;8.00;4.00;;;;;;;14.35;52.39;100978.94;102463;279;96424;-54
2023/06/11 02:12:50;;;;;;;8.10;3.90;;;;;;;14.33;52.39;100978.25;102437;279;119431;-53
2023/06/11 02:15:26;;;;;;;6.40;3.60;;;;;;;14.30;52.40;100978.21;102467;279;106089;-55
2023/06/11 02:18:02;;;;;;;15.10;4.10;;;;;;;14.26;52.38;100984.66;102396;279;114283;-54
2023/06/11 02:20:46;;;;;;;8.90;4.80;;;;;;;14.24;52.38;100981.89;102397;279;94092;-55
2023/06/11 02:23:22;;;;;;;10.10;4.70;;;;;;;14.20;52.44;100982.58;102422;279;97616;-55
2023/06/11 02:25:57;;;;;;;6.90;4.00;;;;;;;14.17;52.40;100981.34;102422;279;122294;-55
2023/06/11 02:28:30;;;;;;;10.40;4.20;;;;;;;14.13;52.38;100980.02;102387;279;105290;-54
2023/06/11 02:31:08;;;;;;;6.20;4.80;;;;;;;14.12;52.47;100981.27;102419;279;112692;-58
2023/06/11 02:33:44;;;;;;;8.50;4.60;;;;;;;14.10;52.52;100983.84;102406;279;94578;-58
2023/06/11 02:36:18;;;;;;;10.00;4.90;;;;;;;14.10;52.35;100986.92;102431;279;98422;-56
2023/06/11 02:38:52;;;;;;;;;;;;;;;14.10;52.34;100992.70;102422;279;120286;-56
2023/06/11 02:41:24;;;;;;;9.70;4.40;;;;;;;14.12;52.36;100995.05;102379;279;104814;-57
2023/06/11 02:43:58;;;;;;;5.30;3.60;;;;;;;14.14;52.43;100997.45;102462;279;112191;-58
2023/06/11 02:46:35;;;;;;;11.10;3.60;;;;;;;14.15;52.23;100998.59;102408;279;94541;-59
2023/06/11 02:49:15;;;;;;;5.70;3.10;;;;;;;14.16;52.33;101001.44;102451;279;98321;-55
2023/06/11 02:51:57;;;;;;;9.30;3.20;;;;;;;14.15;52.27;101003.85;102392;279;119445;-55
2023/06/11 02:54:31;;;;;;;7.50;3.20;;;;;;;14.16;52.19;101004.69;102465;279;105915;-57
2023/06/11 02:57:05;;;;;;;5.20;2.60;;;;;;;14.15;52.27;101006.48;102432;279;114719;-57
2023/06/11 02:59:37;;;;;;;4.60;2.80;;;;;;;14.15;52.22;101009.49;102437;279;95023;-56
2023/06/11 03:02:08;;;;;;;6.40;2.30;;;;;;;14.13;52.28;101010.31;102421;279;96955;-55
2023/06/11 03:04:44;;;;;;;6.40;2.80;;;;;;;14.14;52.30;101014.14;102463;279;119846;-54
2023/06/11 03:07:21;;;;;;;8.40;2.80;;;;;;;14.18;52.16;101016.14;102453;279;104517;-55
2023/06/11 03:09:59;;;;;;;4.20;2.50;;;;;;;14.23;52.20;101019.50;102433;279;112771;-55
2023/06/11 03:12:40;;;;;;;5.90;2.60;;;;;;;14.26;52.13;101020.27;102442;267;95298;-55
2023/06/11 03:15:13;;;;;;;4.80;2.10;;;;;;;14.28;52.02;101022.27;102474;279;97743;-58
2023/06/11 03:17:53;;;;;;;5.80;2.50;;;;;;;14.32;51.98;101027.21;101912;279;653478;-58
2023/06/11 03:20:32;;;;;;;5.60;2.30;;;;;;;14.37;51.90;101026.95;102391;279;106031;-55
2023/06/11 03:23:10;;;;;;;4.20;2.50;;;;;;;14.43;51.93;101031.77;102441;279;113356;-55
2023/06/11 03:25:44;;;;;;;5.50;2.60;;;;;;;14.53;51.73;101024.80;102449;279;93434;-58
2023/06/11 03:28:17;;;;;;;;;;;;;;;15.05;51.41;101027.25;102511;279;98576;-59
2023/06/11 03:30:59;;;;;;;3.90;2.30;;;;;;;15.65;50.82;101026.27;102511;279;120585;-56
2023/06/11 03:33:34;;;;;;;6.90;3.30;;;;;;;16.88;49.83;101027.83;102412;279;104538;-55
2023/06/11 03:36:08;;;;;;;5.40;2.30;;;;;;;18.17;48.42;101019.98;102443;279;112528;-54
2023/06/11 03:38:45;;;;;;;4.50;2.20;;;;;;;19.19;46.63;101022.17;102400;279;94715;-55
2023/06/11 03:41:25;;;;;;;4.50;2.50;;;;;;;20.02;45.78;101023.91;102478;267;96738;-54
2023/06/11 03:44:03;;;;;;;6.10;2.50;;;;;;;21.05;44.00;101026.75;102297;279;120519;-56
2023/06/11 03:46:37;;;;;;;5.40;2.40;;;;;;;21.53;42.74;101028.29;102452;279;105815;-55
2023/06/11 03:49:10;;;;;;;6.30;2.60;;;;;;;22.06;41.41;101029.32;102488;279;114664;-58
2023/06/11 03:51:53;;;;;;;4.80;2.50;;;;;;;22.66;40.57;101025.83;102493;279;93514;-59
2023/06/11 03:54:33;;;;;;;6.80;2.30;;;;;;;23.34;39.43;101029.19;102567;279;98190;-55
2023/06/11 03:57:06;;;;;;;3.70;2.30;;;;;;;23.75;38.43;101032.48;102411;279;125569;-55
2023/06/11 03:59:47;;;;;;;3.30;2.30;;;;;;;24.32;37.47;101032.89;102551;279;106274;-59
2023/06/11 04:02:24;;;;;;;4.80;2.50;;;;;;;24.54;36.68;101037.91;102604;279;114504;-58
2023/06/11 04:04:58;;;;;;;5.60;2.50;;;;;;;24.90;35.62;101038.63;102556;279;94637;-55
2023/06/11 04:07:39;;;;;;;6.20;2.40;;;;;;;25.21;35.27;101043.25;102462;279;97651;-55
2023/06/11 04:10:11;;;;;;;5.50;2.30;;;;;;;25.70;34.59;101045.98;102472;279;120779;-58
2023/06/11 04:12:47;;;;;;;3.80;2.40;;;;;;;26.16;33.82;101047.66;102494;277;104038;-58
2023/06/11 04:15:22;;;;;;;6.50;2.40;;;;;;;26.36;33.18;101050.33;102488;279;114824;-55
2023/06/11 04:17:57;;;;;;;5.80;2.90;;;;;;;26.58;32.91;101050.20;102447;279;93815;-56
2023/06/11 04:20:32;;;;;;;5.50;2.30;;;;;;;26.75;32.29;101047.63;102530;279;97552;-58
2023/06/11 04:23:09;;;;;;;7.50;3.00;;;;;;;26.65;31.50;101056.02;102496;279;120360;-58
2023/06/11 04:25:43;;;;;;;4.80;2.70;;;;;;;25.89;31.73;101052.83;102509;279;104306;-55
2023/06/11 04:28:19;;;;;;;3.80;2.30;;;;;;;24.81;32.25;101052.75;102432;279;116383;-55
2023/06/11 04:30:58;;;;;;;5.50;2.50;;;;;;;24.34;32.99;101057.05;102494;279;93353;-57
2023/06/11 04:33:39;;;;;;;3.90;2.70;;;;;;;23.52;33.03;101060.39;102367;279;97536;-57
2023/06/11 04:36:17;;;;;;;4.70;2.50;;;;;;;22.55;33.82;101063.66;102373;279;121250;-54
2023/06/11 04:38:51;;;;;;;7.20;2.40;;;;;;;21.76;34.75;101063.15;102439;279;105018;-58
2023/06/11 04:41:26;;;;;;;10.90;3.30;;;;;;;20.96;35.45;101069.90;102488;279;114060;-58
2023/06/11 04:44:00;;;;;;;8.50;2.50;;;;;;;20.41;36.33;101063.44;102490;279;93146;-54
2023/06/11 04:46:35;;;;;;;5.70;2.30;;;;;;;20.71;36.56;101063.56;102230;279;99936;-55
2023/06/11 04:49:09;;;;;;;5.60;2.40;;;;;;;22.41;35.92;101064.13;102403;279;119690;-55
2023/06/11 04:51:44;;;;;;;6.40;2.60;;;;;;;24.17;34.55;101061.73;102406;279;105280;-55
2023/06/11 04:54:21;;;;;;;5.30;2.30;;;;;;;25.35;33.11;101061.13;102411;279;114716;-55
2023/06/11 04:56:58;;;;;;;6.70;2.60;;;;;;;26.08;32.22;101062.38;102410;279;93869;-56
2023/06/11 04:59:29;;;;;;;2.80;2.10;;;;;;;26.79;31.65;101057.11;102463;279;97195;-58
2023/06/11 05:02:01;;;;;;;4.10;2.30;;;;;;;27.85;30.85;101055.82;102396;279;121555;-58
2023/06/11 05:04:43;;;;;;;2.80;1.90;;;;;;;28.67;29.84;101056.17;102456;279;105893;-55
2023/06/11 05:07:17;;;;;;;6.30;2.40;;;;;;;29.13;28.99;101059.39;102332;279;113997;-55
2023/06/11 05:09:55;;;;;;;8.50;2.90;;;;;;;29.50;28.55;101062.64;102450;279;94834;-58
2023/06/11 05:12:29;;;;;;;6.00;2.80;;;;;;;29.80;27.99;101062.63;102479;279;97864;-57
2023/06/11 05:15:05;;;;;;;4.20;2.20;;;;;;;30.19;27.81;101062.54;102460;279;120326;-56
2023/06/11 05:17:45;;;;;;;5.40;2.60;;;;;;;30.68;26.81;101061.04;102375;279;104580;-55
2023/06/11 05:20:26;;;;;;;5.20;2.20;;;;;;;31.19;26.41;101059.11;102421;279;114874;-54
2023/06/11 05:23:10;;;;;;;3.80;2.30;;;;;;;31.51;25.90;101056.41;102351;279;94091;-55
2023/06/11 05:25:46;;;;;;;6.20;2.40;;;;;;;31.70;25.77;101059.02;102477;279;98551;-54
2023/06/11 05:28:22;;;;;;;4.70;2.00;;;;;;;32.23;25.21;101063.33;102465;279;120298;-55
2023/06/11 05:30:53;;;;;;;7.60;6.40;;;;;;;32.30;24.67;101065.91;102437;279;104428;-53
2023/06/11 05:33:26;;;;;;;14.00;9.00;;;;;;;32.31;23.90;101066.77;102438;279;113575;-55
2023/06/11 05:36:04;;;;;;;11.20;5.20;;;;;;;32.24;24.23;101070.09;102462;279;94451;-58
2023/06/11 05:38:37;;;;;;;3.10;2.20;;;;;;;32.59;24.02;101065.90;102454;279;95598;-58
2023/06/11 05:41:10;;;;;;;4.00;2.10;;;;;;;33.07;23.74;101065.71;102306;281;122875;-57
2023/06/11 05:43:43;;;;;;;4.80;2.40;;;;;;;33.07;23.23;101068.84;102468;279;105269;-56
2023/06/11 05:46:17;;;;;;;6.40;2.30;;;;;;;33.10;23.14;101066.17;102466;279;114200;-58
2023/06/11 05:48:48;;;;;;;4.50;2.40;;;;;;;32.86;23.24;101072.23;102450;279;94791;-57
2023/06/11 05:51:24;;;;;;;4.20;2.10;;;;;;;32.84;23.07;101074.30;102468;279;98426;-57
2023/06/11 05:54:01;;;;;;;4.60;2.10;;;;;;;33.35;22.87;101070.89;102452;279;120816;-57
2023/06/11 05:56:39;;;;;;;4.20;1.90;;;;;;;33.55;22.51;101072.56;102451;279;104695;-58
2023/06/11 05:59:19;;;;;;;3.40;2.00;;;;;;;34.16;22.30;101075.52;102525;279;113637;-57
2023/06/11 06:01:55;;;;;;;3.70;2.20;;;;;;;34.40;21.64;101078.73;102469;279;93853;-59
2023/06/11 06:04:39;;;;;;;2.40;2.00;;;;;;;34.60;21.76;101076.92;102509;279;97595;-57
2023/06/11 06:07:11;;;;;;;5.60;2.10;;;;;;;34.84;21.52;101077.20;102374;279;120564;-57
2023/06/11 06:09:47;;;;;;;3.80;2.00;;;;;;;34.79;21.24;101076.09;102421;280;105420;-55
2023/06/11 06:12:23;;;;;;;2.30;2.00;;;;;;;34.70;21.32;101075.59;102349;280;115179;-56
2023/06/11 06:14:59;;;;;;;5.50;1.90;;;;;;;34.73;21.19;101079.60;102410;280;94632;-55
2023/06/11 06:17:36;;;;;;;4.70;2.00;;;;;;;34.64;20.95;101084.78;102360;280;98148;-55
2023/06/11 06:20:10;;;;;;;4.10;1.80;;;;;;;34.43;21.42;101083.84;102400;280;120920;-55
2023/06/11 06:22:47;;;;;;;4.20;2.00;;;;;;;35.02;20.89;101089.98;102375;280;106035;-55
2023/06/11 06:25:20;;;;;;;3.00;2.00;;;;;;;35.57;20.51;101089.27;102344;280;114768;-55
2023/06/11 06:27:55;;;;;;;3.10;2.10;;;;;;;35.52;20.56;101086.42;102373;280;93838;-55
2023/06/11 06:30:28;;;;;;;3.10;1.80;;;;;;;35.93;20.38;101083.92;102428;280;97624;-57
2023/06/11 06:33:05;;;;;;;4.60;2.10;;;;;;;36.45;20.18;101080.45;102397;280;121256;-57
2023/06/11 06:35:39;;;;;;;7.00;2.30;;;;;;;36.16;19.89;101085.15;102386;280;105530;-57
2023/06/11 06:38:13;;;;;;;4.00;1.90;;;;;;;35.88;19.88;101080.99;102362;280;113382;-57
2023/06/11 06:40:51;;;;;;;3.80;2.10;;;;;;;36.29;19.78;101084.44;102412;280;94459;-54
2023/06/11 06:43:29;;;;;;;5.40;2.40;;;;;;;36.44;19.42;101083.23;102388;280;98144;-55
2023/06/11 06:46:12;;;;;;;4.10;2.00;;;;;;;36.33;19.23;101085.14;102346;268;121277;-54
2023/06/11 06:48:55;;;;;;;3.40;2.30;;;;;;;36.49;18.92;101085.29;102391;280;106651;-57
2023/06/11 06:51:37;;;;;;;3.50;2.00;;;;;;;36.78;19.17;101080.77;102334;281;114713;-59
2023/06/11 06:54:15;;;;;;;2.70;2.00;;;;;;;36.72;18.79;101083.70;102395;280;94622;-55
2023/06/11 06:56:53;;;;;;;3.90;2.10;;;;;;;36.48;18.62;101085.64;102365;280;97116;-54
2023/06/11 06:59:28;;;;;;;4.00;1.80;;;;;;;36.08;18.88;101084.52;102389;280;121140;-56
2023/06/11 07:02:04;;;;;;;6.70;1.90;;;;;;;36.24;19.05;101082.64;102414;280;104651;-56
2023/06/11 07:04:35;;;;;;;4.70;2.10;;;;;;;36.18;18.50;101086.40;102361;280;114433;-56
2023/06/11 07:07:07;;;;;;;8.80;2.10;;;;;;;35.98;18.67;101081.38;102336;280;95005;-55
2023/06/11 07:09:46;;;;;;;3.80;1.70;;;;;;;36.33;18.53;101078.32;102381;280;98297;-56
2023/06/11 07:12:22;;;;;;;13.40;2.20;;;;;;;36.22;18.21;101078.61;102355;281;118365;-57
2023/06/11 07:15:02;;;;;;;5.70;2.10;;;;;;;36.43;18.05;101080.48;102409;280;106254;-56
2023/06/11 07:17:38;;;;;;;3.50;1.60;;;;;;;36.38;17.49;101079.39;102391;273;114959;-55
2023/06/11 07:20:12;;;;;;;6.40;1.90;;;;;;;35.76;17.67;101082.40;102368;280;92732;-55
2023/06/11 07:22:46;;;;;;;6.00;2.20;;;;;;;35.91;17.56;101081.58;102394;268;96428;-55
2023/06/11 07:25:28;;;;;;;5.10;2.10;;;;;;;35.23;18.10;101084.80;102423;280;120059;-58
2023/06/11 07:28:04;;;;;;;3.70;1.80;;;;;;;35.38;18.01;101087.93;102424;281;105506;-58
2023/06/11 07:30:45;;;;;;;6.70;2.00;;;;;;;35.51;18.08;101082.61;102361;281;114066;-58
2023/06/11 07:33:18;;;;;;;4.90;1.80;;;;;;;35.49;17.81;101084.47;102375;280;93908;-57
2023/06/11 07:35:59;;;;;;;6.90;1.90;;;;;;;35.13;18.15;101089.36;102422;280;97121;-57
2023/06/11 07:38:40;;;;;;;6.50;2.40;;;;;;;35.22;17.69;101093.19;102366;281;120447;-56
2023/06/11 07:41:14;;;;;;;11.50;2.50;;;;;;;34.57;17.26;101095.71;102394;280;105605;-55
2023/06/11 07:43:50;;;;;;;7.00;2.10;;;;;;;34.49;17.41;101090.84;102334;281;113379;-54
2023/06/11 07:46:27;;;;;;;4.10;2.00;;;;;;;34.16;17.72;101087.98;102372;280;94107;-53
2023/06/11 07:49:03;;;;;;;6.60;1.70;;;;;;;34.13;17.81;101083.03;102391;280;97885;-58
2023/06/11 07:51:44;;;;;;;5.80;2.10;;;;;;;34.19;17.51;101092.98;102427;280;120438;-58
2023/06/11 07:54:21;;;;;;;11.30;2.50;;;;;;;34.17;17.52;101090.89;102416;280;106012;-58
2023/06/11 07:56:54;;;;;;;8.40;2.20;;;;;;;34.02;17.69;101089.49;102428;280;115283;-58
2023/06/11 07:59:36;;;;;;;3.50;2.10;;;;;;;34.06;17.76;101085.33;102413;280;93295;-58
2023/06/11 08:02:08;;;;;;;7.10;1.70;;;;;;;34.20;17.52;101089.52;102399;280;97294;-59
2023/06/11 08:04:46;;;;;;;5.20;2.10;;;;;;;33.77;17.38;101084.89;102449;280;120572;-58
2023/06/11 08:07:24;;;;;;;7.10;2.20;;;;;;;33.42;17.40;101083.31;102398;280;104178;-58
2023/06/11 08:09:59;;;;;;;4.20;1.80;;;;;;;34.14;17.50;101081.27;102394;280;114033;-57
2023/06/11 08:12:32;;;;;;;5.30;1.50;;;;;;;34.39;17.31;101080.61;102373;280;93867;-57
2023/06/11 08:15:08;;;;;;;3.30;1.80;;;;;;;34.08;17.41;101079.48;102437;280;97964;-54
2023/06/11 08:17:45;;;;;;;6.20;1.90;;;;;;;33.79;17.28;101078.63;102380;281;120738;-54
2023/06/11 08:20:24;;;;;;;5.90;1.50;;;;;;;33.93;17.29;101072.50;102387;281;105751;-57
2023/06/11 08:23:03;;;;;;;3.20;1.40;;;;;;;34.15;17.39;101072.88;102363;280;114792;-58
2023/06/11 08:25:40;;;;;;;5.60;1.70;;;;;;;33.93;17.49;101075.38;102337;280;94913;-54
2023/06/11 08:28:24;;;;;;;3.00;1.40;;;;;;;34.12;17.50;101077.59;102381;280;97401;-55
2023/06/11 08:31:05;;;;;;;5.70;1.80;;;;;;;33.96;17.42;101069.34;102340;280;120104;-55
2023/06/11 08:33:40;;;;;;;7.00;2.10;;;;;;;33.67;17.51;101067.42;102315;280;105158;-56
2023/06/11 08:36:17;;;;;;;4.80;2.30;;;;;;;33.33;17.53;101063.73;102391;280;114153;-56
2023/06/11 08:38:52;;;;;;;6.70;2.50;;;;;;;33.40;17.99;101062.17;102418;280;94740;-55
2023/06/11 08:41:23;;;;;;;7.80;1.70;;;;;;;33.38;17.51;101064.30;102409;280;98007;-55
2023/06/11 08:43:58;;;;;;;8.00;2.10;;;;;;;32.79;17.79;101062.46;102386;280;121293;-55
2023/06/11 08:46:35;;;;;;;3.40;1.70;;;;;;;32.97;17.85;101062.52;102355;280;105811;-55
2023/06/11 08:49:08;;;;;;;6.10;2.30;;;;;;;32.90;18.28;101060.91;102365;280;115275;-56
2023/06/11 08:51:41;;;;;;;7.10;2.40;;;;;;;33.06;18.33;101054.42;102368;268;93903;-57
2023/06/11 08:54:15;;;;;;;3.90;1.80;;;;;;;33.35;18.58;101054.95;102402;280;95769;-54
2023/06/11 08:56:55;;;;;;;13.40;2.30;;;;;;;33.11;18.71;101058.53;102395;280;119329;-52
2023/06/11 08:59:36;;;;;;;5.60;1.80;;;;;;;31.86;18.98;101050.08;102429;280;106421;-57
2023/06/11 09:02:08;;;;;;;2.30;1.40;;;;;;;31.59;19.40;101050.95;102398;280;112757;-56
2023/06/11 09:04:44;;;;;;;5.60;1.80;;;;;;;30.94;19.57;101048.27;102345;273;93632;-54
2023/06/11 09:07:25;;;;;;;4.30;1.70;;;;;;;29.95;20.17;101061.33;102406;280;96470;-55
2023/06/11 09:10:10;;;;;;;5.70;2.10;;;;;;;29.43;21.23;101056.99;102385;280;120335;-54
2023/06/11 09:12:46;;;;;;;4.80;2.00;;;;;;;29.56;21.57;101051.13;102377;280;105541;-55
2023/06/11 09:15:26;;;;;;;3.20;1.60;;;;;;;28.70;21.64;101054.23;102376;280;114675;-55
2023/06/11 09:18:04;;;;;;;3.70;2.00;;;;;;;28.02;22.04;101058.20;102358;280;94655;-55
2023/06/11 09:20:38;;;;;;;4.70;1.90;;;;;;;27.40;22.71;101062.58;102396;280;98070;-55
2023/06/11 09:23:24;;;;;;;2.10;1.60;;;;;;;26.80;23.09;101053.08;102359;280;120819;-55
2023/06/11 09:26:01;;;;;;;4.90;1.80;;;;;;;26.83;23.77;101042.09;102424;280;104815;-58
2023/06/11 09:28:37;;;;;;;3.80;2.10;;;;;;;26.78;24.07;101042.80;102281;280;113592;-55
2023/06/11 09:31:18;;;;;;;6.40;2.30;;;;;;;26.28;24.56;101045.13;102364;280;94567;-55
2023/06/11 09:34:01;;;;;;;6.00;2.30;;;;;;;26.28;25.07;101047.85;102411;280;98341;-54
2023/06/11 09:36:40;;;;;;;4.90;2.10;;;;;;;26.17;25.07;101041.40;102362;280;120637;-54
2023/06/11 09:39:20;;;;;;;5.90;2.20;;;;;;;26.23;25.28;101038.82;102391;280;104944;-59
2023/06/11 09:41:56;;;;;;;5.70;2.50;;;;;;;26.06;25.36;101040.35;102358;281;114723;-58
2023/06/11 09:44:32;;;;;;;7.10;2.60;;;;;;;25.77;25.48;101043.49;102399;280;94965;-58
2023/06/11 09:47:05;;;;;;;4.40;2.00;;;;;;;25.52;25.38;101044.27;102421;280;97046;-58
2023/06/11 09:49:40;;;;;;;;;;;;;;;25.59;25.26;101043.13;102453;280;120072;-58
2023/06/11 09:52:17;;;;;;;2.50;1.90;;;;;;;25.70;25.62;101039.55;102413;280;105720;-59
2023/06/11 09:54:58;;;;;;;2.60;2.20;;;;;;;26.02;26.20;101037.34;102407;280;114711;-57
2023/06/11 09:57:34;;;;;;;4.60;2.20;;;;;;;26.12;26.08;101032.31;102380;280;93778;-57
2023/06/11 10:00:11;;;;;;;4.90;2.00;;;;;;;26.31;26.00;101036.49;102371;280;98043;-56
2023/06/11 10:02:44;;;;;;;3.60;2.00;;;;;;;26.23;25.58;101037.42;102396;280;122649;-55
2023/06/11 10:05:19;;;;;;;5.80;2.20;;;;;;;25.99;25.60;101042.09;102383;280;105884;-55
2023/06/11 10:08:02;;;;;;;5.30;2.00;;;;;;;25.78;25.92;101039.76;102346;280;114849;-54
2023/06/11 10:10:44;;;;;;;4.80;2.00;;;;;;;25.95;25.95;101033.02;102359;280;94184;-58
2023/06/11 10:13:29;;;;;;;3.50;1.90;;;;;;;25.93;25.79;101035.61;102381;280;97050;-58
2023/06/11 10:16:08;;;;;;;3.50;2.20;;;;;;;25.85;25.46;101022.71;102301;280;119697;-59
2023/06/11 10:18:41;;;;;;;4.80;2.50;;;;;;;25.98;25.67;101028.14;102450;280;106540;-58
2023/06/11 10:21:21;;;;;;;5.30;2.20;;;;;;;26.00;25.61;101022.05;102392;280;113513;-58
2023/06/11 10:23:58;;;;;;;4.50;2.50;;;;;;;25.88;25.77;101023.36;102398;280;94804;-56
2023/06/11 10:26:36;;;;;;;4.40;1.90;;;;;;;25.75;25.82;101010.61;102413;280;97434;-57
2023/06/11 10:29:12;;;;;;;6.50;2.50;;;;;;;25.98;26.70;101018.56;102374;280;121157;-55
2023/06/11 10:31:45;;;;;;;4.50;2.30;;;;;;;25.76;25.82;101024.84;102391;280;105491;-56
2023/06/11 10:34:20;;;;;;;3.50;2.20;;;;;;;25.44;25.53;101020.15;102351;280;114454;-57
2023/06/11 10:36:52;;;;;;;4.80;2.00;;;;;;;25.26;25.71;101016.28;102357;280;94745;-57
2023/06/11 10:39:25;;;;;;;5.20;1.90;;;;;;;25.44;26.37;101011.98;102409;280;95783;-59
2023/06/11 10:42:05;;;;;;;5.30;2.00;;;;;;;25.51;26.23;101018.05;102428;280;119680;-59
2023/06/11 10:44:48;;;;;;;3.00;1.80;;;;;;;25.54;26.31;101012.52;102383;280;104554;-58
2023/06/11 10:47:30;;;;;;;3.10;2.20;;;;;;;25.18;25.74;101011.38;102340;280;115019;-58
2023/06/11 10:50:13;;;;;;;4.00;2.10;;;;;;;25.04;25.75;101009.88;102389;280;95244;-55
2023/06/11 10:52:58;;;;;;;5.20;2.80;;;;;;;24.96;26.18;101008.17;102400;280;96398;-55
2023/06/11 10:55:34;;;;;;;5.20;2.20;;;;;;;25.12;26.29;101006.92;102410;280;120960;-59
2023/06/11 10:58:07;;;;;;;2.40;2.00;;;;;;;25.24;26.13;101003.38;102419;280;106140;-59
2023/06/11 11:00:43;;;;;;;7.40;2.80;;;;;;;25.22;26.15;101000.92;102413;280;114106;-57
2023/06/11 11:03:16;;;;;;;3.40;2.20;;;;;;;25.17;26.07;101013.20;102335;280;92244;-58
2023/06/11 11:05:57;;;;;;;2.60;2.20;;;;;;;24.89;26.25;101011.58;102413;280;97705;-56
2023/06/11 11:08:32;;;;;;;5.90;2.30;;;;;;;24.75;26.44;101005.44;102368;280;120903;-56
2023/06/11 11:11:07;;;;;;;4.60;2.30;;;;;;;24.80;26.84;101012.53;102373;280;105502;-55
2023/06/11 11:13:48;;;;;;;3.20;2.20;;;;;;;24.82;26.87;101009.72;102366;280;113264;-57
2023/06/11 11:16:21;;;;;;;3.90;2.10;;;;;;;24.90;26.85;101010.15;102367;280;93745;-58
2023/06/11 11:19:06;;;;;;;4.70;2.80;;;;;;;24.83;26.35;101012.09;101792;280;631815;-55
2023/06/11 11:21:40;;;;;;;2.70;2.10;;;;;;;24.73;26.79;101002.73;102405;280;120625;-55
2023/06/11 11:24:13;;;;;;;3.50;2.50;;;;;;;24.88;27.09;101011.18;102479;281;105331;-57
2023/06/11 11:26:52;;;;;;;4.40;2.20;;;;;;;24.91;26.78;101000.93;102235;281;113904;-57
2023/06/11 11:29:23;;;;;;;4.50;2.30;;;;;;;24.91;26.75;101003.40;102398;280;95009;-59
2023/06/11 11:31:59;;;;;;;4.20;2.30;;;;;;;25.01;26.86;100993.89;102457;280;98416;-58
2023/06/11 11:34:38;;;;;;;6.20;2.30;;;;;;;25.22;26.87;100997.45;102477;280;120431;-56
2023/06/11 11:37:15;;;;;;;5.80;2.70;;;;;;;25.22;26.52;101008.02;102412;280;105837;-57
2023/06/11 11:39:56;;;;;;;3.40;2.00;;;;;;;25.04;26.29;101000.52;102383;281;114959;-58
2023/06/11 11:42:46;;;;;;;3.60;2.40;;;;;;;24.95;26.77;100999.77;102386;280;94921;-58
2023/06/11 11:45:33;;;;;;;2.90;2.20;;;;;;;25.04;26.90;100992.30;102430;280;97532;-59
2023/06/11 11:48:09;;;;;;;3.60;2.50;;;;;;;25.05;27.10;100987.48;102461;281;119658;-58
2023/06/11 11:51:02;;;;;;;3.60;2.70;;;;;;;25.30;27.17;100989.01;102409;281;105274;-55
2023/06/11 11:53:38;;;;;;;4.20;2.60;;;;;;;25.47;26.94;100999.31;102385;280;114532;-56
2023/06/11 11:56:13;;;;;;;3.20;2.70;;;;;;;25.35;26.53;100988.70;102390;280;94778;-57
2023/06/11 11:58:49;;;;;;;3.90;2.40;;;;;;;25.35;27.21;100996.38;102368;281;97675;-55
2023/06/11 12:01:22;;;;;;;4.60;2.90;;;;;;;25.29;27.30;100988.73;102357;280;121258;-58
2023/06/11 12:04:00;;;;;;;4.30;2.70;;;;;;;25.24;27.38;100990.60;102266;281;106076;-58
2023/06/11 12:06:40;;;;;;;3.70;2.50;;;;;;;25.20;27.67;100991.03;102359;280;113765;-58